Time;durP1;ratioP1;P1;durP2;ratioP2;P2;SDS_P1;SDS_P2;PMS_P1;PMS_P2;Temp;Humidity;BMP_temperature;BMP_pressure;BME280_temperature;BME280_humidity;BME280_pressure;Samples;Min_cycle;Max_cycle;Signal;HPM_P1;HPM_P2
2022/11/18 00:01:34;;;;;;;;;;;;;;;11.61;83.41;98767.09;7382010;19;19915;-86
2022/11/18 00:04:01;;;;;;;;;;;;;;;11.61;82.98;98772.34;7383520;19;20249;-87
2022/11/18 00:06:31;;;;;;;;;;;;;;;11.62;82.72;98778.44;7383123;19;21209;-87
2022/11/18 00:08:59;;;;;;;;;;;;;;;11.60;82.21;98781.25;7378600;19;20338;-87
2022/11/18 00:14:21;;;;;;;;;;;;;;;11.64;81.99;98789.53;7380347;19;19960;-86
2022/11/18 00:16:55;;;;;;;;;;;;;;;11.68;82.96;98788.13;7379793;19;19919;-87
2022/11/18 00:19:23;;;;;;;;;;;;;;;11.69;82.27;98795.81;7382092;19;19949;-88
2022/11/18 00:21:50;;;;;;;;;;;;;;;11.67;81.99;98789.97;7381344;19;20658;-87
2022/11/18 00:24:17;;;;;;;;;;;;;;;11.62;81.27;98792.41;7385631;19;19983;-87
2022/11/18 00:26:44;;;;;;;;;;;;;;;11.58;80.81;98797.28;7382965;19;19925;-88
2022/11/18 00:29:11;;;;;;;;;;;;;;;11.61;82.36;98803.16;7385172;19;19926;-87
2022/11/18 00:31:38;;;;;;;;;;;;;;;11.59;81.60;98798.09;7380048;19;20020;-87
2022/11/18 00:34:05;;;;;;;;;;;;;;;11.61;81.40;98816.31;7378527;19;19954;-88
2022/11/18 00:36:33;;;;;;;;;;;;;;;11.58;81.48;98818.34;7378175;19;20237;-87
2022/11/18 00:38:59;;;;;;;;;;;;;;;11.58;81.36;98813.06;7381268;19;19919;-87
2022/11/18 00:42:49;;;;;;;;;;;;;;;11.58;80.98;98820.16;7379480;19;19954;-86
2022/11/18 00:44:13;;;;;;;;;;;;;;;11.64;82.43;98827.25;7380372;19;19911;-86
2022/11/18 00:46:40;;;;;;;;;;;;;;;11.69;82.78;98816.88;7380748;19;20337;-87
2022/11/18 00:49:07;;;;;;;;;;;;;;;11.77;83.53;98829.88;7386659;19;20397;-85
2022/11/18 00:51:34;;;;;;;;;;;;;;;11.73;80.71;98833.94;7384917;19;20629;-88
2022/11/18 00:54:04;;;;;;;;;;;;;;;11.69;80.13;98831.88;7382473;19;20352;-87
2022/11/18 00:56:34;;;;;;;;;;;;;;;11.70;81.24;98846.66;7387594;19;19930;-87
2022/11/18 00:59:01;;;;;;;;;;;;;;;11.72;81.16;98844.66;7385604;19;19954;-86
2022/11/18 01:01:31;;;;;;;;;;;;;;;11.70;80.67;98846.66;7387021;19;19947;-88
2022/11/18 01:03:58;;;;;;;;;;;;;;;11.65;80.07;98852.56;7386642;19;19930;-87
2022/11/18 01:06:25;;;;;;;;;;;;;;;11.71;81.63;98851.75;7382679;19;19918;-87
2022/11/18 01:08:53;;;;;;;;;;;;;;;11.71;80.38;98850.94;7384511;19;19991;-88
2022/11/18 01:14:06;;;;;;;;;;;;;;;11.76;80.23;98848.50;7384700;19;20001;-86
2022/11/18 01:16:33;;;;;;;;;;;;;;;11.74;79.11;98859.25;7384391;19;21303;-87
2022/11/18 01:18:59;;;;;;;;;;;;;;;11.78;79.46;98857.84;7383525;19;19923;-86
2022/11/18 01:21:27;;;;;;;;;;;;;;;11.75;78.40;98858.22;7383623;19;19919;-86
2022/11/18 01:23:55;;;;;;;;;;;;;;;11.76;78.77;98859.03;7384789;19;19928;-87
2022/11/18 01:26:22;;;;;;;;;;;;;;;11.80;79.62;98870.78;7382699;19;20384;-87
2022/11/18 01:28:49;;;;;;;;;;;;;;;11.80;78.81;98868.94;7385562;19;19947;-86
2022/11/18 01:31:17;;;;;;;;;;;;;;;11.80;77.06;98868.94;7384054;19;19923;-86
2022/11/18 01:33:45;;;;;;;;;;;;;;;11.77;77.87;98869.38;7387800;19;19919;-86
2022/11/18 01:36:20;;;;;;;;;;;;;;;11.74;77.31;98877.69;7384720;19;20684;-86
2022/11/18 01:38:47;;;;;;;;;;;;;;;11.71;78.01;98874.63;7386181;19;20250;-87
2022/11/18 01:41:18;;;;;;;;;;;;;;;11.70;78.49;98883.56;7381131;19;20566;-86
2022/11/18 01:43:53;;;;;;;;;;;;;;;11.68;77.79;98888.25;7386564;19;21574;-87
2022/11/18 01:46:21;;;;;;;;;;;;;;;11.66;78.01;98890.25;7386149;19;19943;-86
2022/11/18 01:48:51;;;;;;;;;;;;;;;11.68;78.52;98898.78;7384131;19;19923;-85
2022/11/18 01:51:23;;;;;;;;;;;;;;;11.74;79.59;98898.75;7385858;19;19938;-88
2022/11/18 01:53:54;;;;;;;;;;;;;;;11.73;78.38;98904.25;7378469;19;20266;-86
2022/11/18 01:56:25;;;;;;;;;;;;;;;11.70;78.08;98904.63;7381802;19;19923;-85
2022/11/18 01:58:55;;;;;;;;;;;;;;;11.69;78.66;98914.34;7382652;19;19925;-86
2022/11/18 02:01:22;;;;;;;;;;;;;;;11.70;78.66;98910.72;7382999;19;19907;-86
2022/11/18 02:03:49;;;;;;;;;;;;;;;11.71;78.65;98917.59;7383149;19;19913;-86
2022/11/18 02:06:19;;;;;;;;;;;;;;;11.75;79.07;98924.09;7383368;19;19915;-86
2022/11/18 02:09:19;;;;;;;;;;;;;;;11.76;78.84;98917.00;7384829;19;20266;-86
2022/11/18 02:11:50;;;;;;;;;;;;;;;11.75;78.02;98921.47;7383306;19;19922;-87
2022/11/18 02:14:20;;;;;;;;;;;;;;;11.72;78.03;98921.88;7383805;19;20756;-87
2022/11/18 02:17:06;;;;;;;;;;;;;;;11.72;79.08;98928.97;7383605;19;20244;-86
2022/11/18 02:19:33;;;;;;;;;;;;;;;11.71;78.70;98928.13;7384702;19;20486;-86
2022/11/18 02:22:12;;;;;;;;;;;;;;;11.67;78.00;98934.84;7382778;19;19926;-86
2022/11/18 02:24:50;;;;;;;;;;;;;;;11.67;78.87;98932.22;7387589;19;19986;-85
2022/11/18 02:27:26;;;;;;;;;;;;;;;11.66;78.01;98937.69;7385770;19;19918;-85
2022/11/18 02:30:10;;;;;;;;;;;;;;;11.65;78.05;98944.78;7384699;19;19939;-86
2022/11/18 02:32:51;;;;;;;;;;;;;;;11.60;77.69;98941.94;7382174;19;19915;-86
2022/11/18 02:35:46;;;;;;;;;;;;;;;11.60;77.89;98949.84;7383278;19;19925;-85
2022/11/18 02:38:25;;;;;;;;;;;;;;;11.62;79.57;98952.28;7379010;19;19915;-87
2022/11/18 02:40:56;;;;;;;;;;;;;;;11.61;79.26;98954.09;7380419;19;19915;-87
2022/11/18 02:43:39;;;;;;;;;;;;;;;11.56;78.29;98957.34;7381987;19;20296;-86
2022/11/18 02:46:12;;;;;;;;;;;;;;;11.55;78.42;98960.19;7381631;19;19937;-85
2022/11/18 02:48:45;;;;;;;;;;;;;;;11.52;78.87;98961.44;7381191;19;19939;-86
2022/11/18 02:51:16;;;;;;;;;;;;;;;11.50;78.50;98970.53;7380509;19;19931;-86
2022/11/18 02:53:44;;;;;;;;;;;;;;;11.46;78.92;98974.59;7377642;19;19931;-87
2022/11/18 02:56:12;;;;;;;;;;;;;;;11.45;79.14;98971.16;7380638;19;19937;-86
2022/11/18 02:58:39;;;;;;;;;;;;;;;11.45;79.26;98968.50;7381601;19;20381;-86
2022/11/18 03:01:06;;;;;;;;;;;;;;;11.47;79.40;98978.84;7378982;19;19986;-86
2022/11/18 03:03:37;;;;;;;;;;;;;;;11.44;78.71;98984.50;7378940;19;19937;-86
2022/11/18 03:06:24;;;;;;;;;;;;;;;11.42;79.23;98979.47;7379650;19;19927;-85
2022/11/18 03:09:23;;;;;;;;;;;;;;;11.48;79.68;98980.44;7378921;19;19925;-86
2022/11/18 03:11:55;;;;;;;;;;;;;;;11.52;79.64;98979.84;7379552;19;19906;-86
2022/11/18 03:14:25;;;;;;;;;;;;;;;11.51;79.00;98994.03;7380031;19;19926;-87
2022/11/18 03:16:58;;;;;;;;;;;;;;;11.52;78.38;98990.41;7379591;19;19915;-86
2022/11/18 03:19:37;;;;;;;;;;;;;;;11.50;78.66;98997.69;7383856;19;19990;-86
2022/11/18 03:22:12;;;;;;;;;;;;;;;11.51;78.89;99006.41;7381353;19;19915;-86
2022/11/18 03:24:41;;;;;;;;;;;;;;;11.47;77.92;98999.91;7385769;19;20399;-84
2022/11/18 03:27:13;;;;;;;;;;;;;;;11.42;78.19;99008.44;7384064;19;19954;-84
2022/11/18 03:29:47;;;;;;;;;;;;;;;11.37;78.73;99002.16;7381968;19;20661;-86
2022/11/18 03:32:20;;;;;;;;;;;;;;;11.39;79.24;99006.19;7380922;19;19911;-86
2022/11/18 03:34:54;;;;;;;;;;;;;;;11.43;79.38;99014.47;7379781;19;19926;-86
2022/11/18 03:37:23;;;;;;;;;;;;;;;11.43;78.51;99019.75;7375431;19;20494;-86
2022/11/18 03:39:56;;;;;;;;;;;;;;;11.44;78.94;99019.56;7381441;19;19918;-86
2022/11/18 03:42:38;;;;;;;;;;;;;;;11.47;78.52;99023.63;7383580;19;19923;-85
2022/11/18 03:45:15;;;;;;;;;;;;;;;11.40;77.93;99022.81;7393499;19;19919;-87
2022/11/18 03:47:46;;;;;;;;;;;;;;;11.37;78.29;99026.66;7399680;19;19923;-86
2022/11/18 03:50:20;;;;;;;;;;;;;;;11.37;79.19;99020.59;7401338;19;19918;-87
2022/11/18 03:52:49;;;;;;;;;;;;;;;11.33;78.75;99029.88;7402382;19;19927;-87
2022/11/18 03:55:22;;;;;;;;;;;;;;;11.27;78.34;99035.97;7390550;19;19923;-87
2022/11/18 03:58:09;;;;;;;;;;;;;;;11.25;78.96;99038.81;7383615;19;20344;-86
2022/11/18 04:00:44;;;;;;;;;;;;;;;11.23;78.31;99045.25;7383087;19;19940;-86
2022/11/18 04:03:11;;;;;;;;;;;;;;;11.19;78.92;99041.41;7384186;19;19923;-85
2022/11/18 04:05:41;;;;;;;;;;;;;;;11.20;78.91;99046.50;7397520;19;19933;-86
2022/11/18 04:08:20;;;;;;;;;;;;;;;11.21;79.19;99050.75;7388621;19;19918;-86
2022/11/18 04:12:01;;;;;;;;;;;;;;;11.17;78.78;99057.44;7378636;19;20246;-86
2022/11/18 04:13:57;;;;;;;;;;;;;;;11.16;78.64;99058.44;7377298;19;19928;-85
2022/11/18 04:16:24;;;;;;;;;;;;;;;11.18;79.05;99066.13;7377953;19;19926;-86
2022/11/18 04:18:51;;;;;;;;;;;;;;;11.25;80.08;99069.56;7379207;19;20321;-86
2022/11/18 04:21:18;;;;;;;;;;;;;;;11.32;80.69;99080.94;7377215;19;19944;-86
2022/11/18 04:23:45;;;;;;;;;;;;;;;11.28;78.35;99077.06;7383649;19;19930;-85
2022/11/18 04:26:16;;;;;;;;;;;;;;;11.21;78.08;99079.72;7387853;19;19930;-87
2022/11/18 04:28:43;;;;;;;;;;;;;;;11.18;78.34;99081.91;7384910;19;20275;-86
2022/11/18 04:31:10;;;;;;;;;;;;;;;11.20;78.87;99090.44;7386345;19;19918;-86
2022/11/18 04:33:37;;;;;;;;;;;;;;;11.25;79.45;99093.28;7384645;19;19922;-85
2022/11/18 04:36:04;;;;;;;;;;;;;;;11.26;79.27;99103.63;7386605;19;19933;-87
2022/11/18 04:38:31;;;;;;;;;;;;;;;11.21;77.66;99106.03;7383707;19;19921;-86
2022/11/18 04:40:58;;;;;;;;;;;;;;;11.17;77.34;99104.00;7383653;19;20290;-87
2022/11/18 04:43:25;;;;;;;;;;;;;;;11.15;78.13;99115.53;7389268;19;19993;-86
2022/11/18 04:49:11;;;;;;;;;;;;;;;11.15;78.22;99115.53;7380094;19;19939;-84
2022/11/18 04:51:38;;;;;;;;;;;;;;;11.12;78.03;99112.50;7377456;19;19929;-86
2022/11/18 04:54:08;;;;;;;;;;;;;;;11.12;78.12;99129.06;7381034;19;19931;-84
2022/11/18 04:56:35;;;;;;;;;;;;;;;11.17;78.85;99138.22;7380693;19;19921;-86
2022/11/18 04:59:03;;;;;;;;;;;;;;;11.15;78.36;99133.97;7381882;19;19923;-88
2022/11/18 05:01:30;;;;;;;;;;;;;;;11.17;78.13;99133.78;7382085;19;19918;-85
2022/11/18 05:04:01;;;;;;;;;;;;;;;11.22;78.32;99136.63;7385472;19;20574;-84
2022/11/18 05:06:28;;;;;;;;;;;;;;;11.20;77.88;99135.19;7382648;19;19923;-87
2022/11/18 05:08:56;;;;;;;;;;;;;;;11.16;78.06;99147.94;7386373;19;19919;-87
2022/11/18 05:14:12;;;;;;;;;;;;;;;11.19;78.50;99150.16;7385696;19;20393;-86
2022/11/18 05:16:39;;;;;;;;;;;;;;;11.23;78.96;99159.28;7385948;19;19960;-86
2022/11/18 05:19:05;;;;;;;;;;;;;;;11.24;78.22;99163.53;7384173;19;19915;-86
2022/11/18 05:21:32;;;;;;;;;;;;;;;11.22;78.45;99156.88;7382171;19;20354;-86
2022/11/18 05:24:03;;;;;;;;;;;;;;;11.13;78.24;99162.28;7382430;19;19923;-85
2022/11/18 05:26:29;;;;;;;;;;;;;;;11.13;78.17;99172.00;7384807;19;19930;-86
2022/11/18 05:28:56;;;;;;;;;;;;;;;11.10;78.27;99170.59;7384211;19;19922;-86
2022/11/18 05:31:23;;;;;;;;;;;;;;;11.07;78.38;99167.56;7382129;19;20357;-87
2022/11/18 05:33:50;;;;;;;;;;;;;;;11.07;79.42;99178.88;7382514;19;19978;-87
2022/11/18 05:36:18;;;;;;;;;;;;;;;11.15;80.91;99178.72;7380875;19;19914;-86
2022/11/18 05:38:45;;;;;;;;;;;;;;;11.17;79.27;99188.22;7382574;19;19935;-87
2022/11/18 05:43:58;;;;;;;;;;;;;;;11.26;78.59;99189.69;7384944;19;19918;-87
2022/11/18 05:46:27;;;;;;;;;;;;;;;11.27;78.46;99196.56;7383067;19;19925;-87
2022/11/18 05:49:03;;;;;;;;;;;;;;;11.30;78.46;99196.97;7382556;19;19923;-86
2022/11/18 05:51:33;;;;;;;;;;;;;;;11.31;78.47;99200.44;7383810;19;19918;-86
2022/11/18 05:54:03;;;;;;;;;;;;;;;11.31;78.29;99205.69;7384038;19;19923;-87
2022/11/18 05:56:34;;;;;;;;;;;;;;;11.33;78.70;99207.09;7383996;19;20021;-88
2022/11/18 05:59:02;;;;;;;;;;;;;;;11.34;78.50;99211.38;7383567;19;19926;-86
2022/11/18 06:01:31;;;;;;;;;;;;;;;11.34;78.47;99219.25;7380802;19;20019;-86
2022/11/18 06:03:59;;;;;;;;;;;;;;;11.32;78.14;99221.31;7382674;19;20337;-85
2022/11/18 06:06:26;;;;;;;;;;;;;;;11.24;77.92;99218.81;7381267;19;19915;-86
2022/11/18 06:09:00;;;;;;;;;;;;;;;11.25;78.78;99228.34;7382825;19;19918;-85
2022/11/18 06:11:27;;;;;;;;;;;;;;;11.32;79.04;99238.91;7382932;19;19918;-86
2022/11/18 06:13:58;;;;;;;;;;;;;;;11.34;78.65;99239.50;7384644;19;19919;-86
2022/11/18 06:16:27;;;;;;;;;;;;;;;11.38;79.16;99246.00;7383093;19;19923;-86
2022/11/18 06:18:54;;;;;;;;;;;;;;;11.39;79.14;99251.09;7383939;19;20220;-86
2022/11/18 06:21:23;;;;;;;;;;;;;;;11.39;79.14;99255.53;7379817;19;19918;-86
2022/11/18 06:23:53;;;;;;;;;;;;;;;11.41;79.26;99262.25;7381544;19;20280;-85
2022/11/18 06:26:20;;;;;;;;;;;;;;;11.43;78.71;99265.47;7383420;19;20519;-86
2022/11/18 06:28:48;;;;;;;;;;;;;;;11.44;78.08;99271.56;7381202;19;19911;-84
2022/11/18 06:31:17;;;;;;;;;;;;;;;11.44;78.36;99271.56;7384117;19;20284;-88
2022/11/18 06:33:44;;;;;;;;;;;;;;;11.39;78.09;99280.06;7380704;19;20561;-86
2022/11/18 06:36:11;;;;;;;;;;;;;;;11.45;79.74;99281.91;7379285;19;19917;-87
2022/11/18 06:38:38;;;;;;;;;;;;;;;11.48;79.23;99291.22;7380139;19;19927;-87
2022/11/18 06:41:05;;;;;;;;;;;;;;;11.47;78.60;99290.44;7383085;19;19918;-87
2022/11/18 06:43:40;;;;;;;;;;;;;;;11.48;78.95;99297.31;7382529;19;19918;-87
2022/11/18 06:48:57;;;;;;;;;;;;;;;11.39;78.38;99314.28;7383851;19;19911;-86
2022/11/18 06:51:24;;;;;;;;;;;;;;;11.37;79.44;99318.13;7377525;19;19919;-85
2022/11/18 06:53:51;;;;;;;;;;;;;;;11.37;79.65;99332.13;7383164;19;19922;-86
2022/11/18 06:59:37;;;;;;;;;;;;;;;11.30;79.32;99331.25;7380297;19;19919;-86
2022/11/18 07:02:04;;;;;;;;;;;;;;;11.29;79.57;99344.63;7381580;19;19998;-87
2022/11/18 07:04:33;;;;;;;;;;;;;;;11.28;79.71;99348.25;7381189;19;21546;-87
2022/11/18 07:07:00;;;;;;;;;;;;;;;11.29;80.54;99344.63;7377712;19;20333;-86
2022/11/18 07:12:45;;;;;;;;;;;;;;;11.31;80.07;99364.50;7380952;19;19988;-86
2022/11/18 07:15:12;;;;;;;;;;;;;;;11.25;79.89;99367.88;7379265;19;19919;-86
2022/11/18 07:17:39;;;;;;;;;;;;;;;11.23;80.18;99371.72;7379671;19;20152;-86
2022/11/18 07:20:06;;;;;;;;;;;;;;;11.18;80.67;99372.28;7381393;19;19915;-86
2022/11/18 07:22:33;;;;;;;;;;;;;;;11.11;80.45;99372.28;7383116;19;20307;-87
2022/11/18 07:25:00;;;;;;;;;;;;;;;11.08;80.53;99380.53;7383843;19;19911;-86
2022/11/18 07:27:27;;;;;;;;;;;;;;;11.01;81.02;99387.59;7380683;19;19951;-85
2022/11/18 07:29:54;;;;;;;;;;;;;;;10.99;81.33;99389.59;7384340;19;19918;-86
2022/11/18 07:32:21;;;;;;;;;;;;;;;10.97;81.14;99402.09;7383361;19;19922;-87
2022/11/18 07:34:48;;;;;;;;;;;;;;;11.01;83.10;99402.56;7378939;19;19919;-86
2022/11/18 07:37:14;;;;;;;;;;;;;;;11.07;82.49;99415.75;7379362;19;19922;-87
2022/11/18 07:39:41;;;;;;;;;;;;;;;11.04;81.75;99421.41;7381598;19;19935;-87
2022/11/18 07:42:11;;;;;;;;;;;;;;;10.99;81.51;99418.53;7379431;19;19926;-87
2022/11/18 07:44:37;;;;;;;;;;;;;;;10.94;81.95;99425.38;7379747;19;19923;-86
2022/11/18 07:47:04;;;;;;;;;;;;;;;10.89;81.94;99423.31;7376973;19;19919;-87
2022/11/18 07:49:31;;;;;;;;;;;;;;;10.87;82.39;99432.41;7384789;19;19907;-87
2022/11/18 07:51:58;;;;;;;;;;;;;;;10.90;82.95;99437.28;7386205;19;19923;-86
2022/11/18 07:54:26;;;;;;;;;;;;;;;10.92;82.77;99443.97;7382902;19;19919;-87
2022/11/18 07:56:53;;;;;;;;;;;;;;;10.95;82.64;99440.97;7388852;19;19935;-87
2022/11/18 07:59:21;;;;;;;;;;;;;;;10.97;82.49;99453.94;7394761;19;19915;-87
2022/11/18 08:01:48;;;;;;;;;;;;;;;10.97;82.26;99460.00;7391297;19;20261;-85
2022/11/18 08:04:16;;;;;;;;;;;;;;;11.02;83.37;99462.09;7389426;19;19922;-87
2022/11/18 08:06:44;;;;;;;;;;;;;;;11.03;83.23;99464.50;7384296;19;20555;-86
2022/11/18 08:09:11;;;;;;;;;;;;;;;11.06;82.82;99471.22;7388153;19;20310;-86
2022/11/18 08:11:39;;;;;;;;;;;;;;;11.10;82.29;99477.75;7390928;19;20025;-87
2022/11/18 08:14:06;;;;;;;;;;;;;;;11.12;82.41;99487.06;7389295;19;19919;-86
2022/11/18 08:16:34;;;;;;;;;;;;;;;11.12;81.99;99492.31;7383489;19;19915;-86
2022/11/18 08:19:01;;;;;;;;;;;;;;;11.14;82.63;99486.88;7388690;19;20006;-85
2022/11/18 08:21:29;;;;;;;;;;;;;;;11.15;82.73;99491.16;7385612;19;19923;-85
2022/11/18 08:23:57;;;;;;;;;;;;;;;11.20;82.65;99493.22;7390045;19;20649;-85
2022/11/18 08:26:28;;;;;;;;;;;;;;;11.24;82.56;99495.28;7389461;19;19915;-86
2022/11/18 08:29:06;;;;;;;;;;;;;;;11.28;82.11;99498.31;7387447;19;20311;-86
2022/11/18 08:31:34;;;;;;;;;;;;;;;11.33;81.67;99493.31;7386544;19;19914;-85
2022/11/18 08:34:07;;;;;;;;;;;;;;;11.40;82.34;99496.81;7385847;19;19922;-87
2022/11/18 08:36:35;;;;;;;;;;;;;;;11.41;82.21;99507.16;7381283;19;19944;-86
2022/11/18 08:39:04;;;;;;;;;;;;;;;11.41;81.31;99507.16;7387198;19;19932;-86
2022/11/18 08:41:35;;;;;;;;;;;;;;;11.39;81.56;99511.78;7382568;19;21510;-86
2022/11/18 08:44:03;;;;;;;;;;;;;;;11.38;81.18;99514.63;7384514;19;19927;-86
2022/11/18 08:46:30;;;;;;;;;;;;;;;11.41;81.92;99524.78;7381893;19;19930;-85
2022/11/18 08:48:57;;;;;;;;;;;;;;;11.46;82.44;99522.41;7393234;19;19930;-84
2022/11/18 08:51:24;;;;;;;;;;;;;;;11.51;82.42;99523.44;7390345;19;19922;-85
2022/11/18 08:53:51;;;;;;;;;;;;;;;11.53;81.60;99529.31;7390512;19;19914;-85
2022/11/18 08:56:19;;;;;;;;;;;;;;;11.56;81.45;99525.50;7383068;19;20660;-86
2022/11/18 08:58:46;;;;;;;;;;;;;;;11.52;80.85;99525.09;7387379;19;19922;-86
2022/11/18 09:01:15;;;;;;;;;;;;;;;11.51;81.43;99536.63;7385011;19;19911;-85
2022/11/18 09:03:42;;;;;;;;;;;;;;;11.57;84.85;99535.88;7386425;19;19949;-85
2022/11/18 09:06:15;;;;;;;;;;;;;;;11.58;85.08;99541.91;7382224;19;19923;-86
2022/11/18 09:08:42;;;;;;;;;;;;;;;11.63;84.58;99547.44;7381731;19;19974;-87
2022/11/18 09:11:11;;;;;;;;;;;;;;;11.65;83.58;99550.69;7384381;19;19919;-85
2022/11/18 09:13:38;;;;;;;;;;;;;;;11.71;82.85;99551.75;7384758;19;19986;-86
2022/11/18 09:16:27;;;;;;;;;;;;;;;11.75;82.24;99543.31;7381200;19;20010;-87
2022/11/18 09:18:57;;;;;;;;;;;;;;;11.74;81.98;99552.22;7385185;19;20193;-85
2022/11/18 09:21:43;;;;;;;;;;;;;;;11.76;81.98;99555.47;7387859;19;19923;-86
2022/11/18 09:24:10;;;;;;;;;;;;;;;11.81;81.96;99565.44;7383648;19;19933;-86
2022/11/18 09:26:37;;;;;;;;;;;;;;;11.89;81.98;99576.66;7382140;19;20341;-85
2022/11/18 09:29:07;;;;;;;;;;;;;;;11.94;81.58;99578.69;7388729;19;19922;-86
2022/11/18 09:34:49;;;;;;;;;;;;;;;12.04;80.93;99581.81;7386501;19;19918;-87
2022/11/18 09:37:21;;;;;;;;;;;;;;;12.06;80.49;99581.63;7383541;19;19939;-86
2022/11/18 09:39:48;;;;;;;;;;;;;;;12.09;79.48;99591.81;7384171;19;19907;-84
2022/11/18 09:42:15;;;;;;;;;;;;;;;12.11;79.80;99595.88;7384677;19;19959;-86
2022/11/18 09:44:55;;;;;;;;;;;;;;;12.15;80.25;99591.81;7388587;19;19919;-86
2022/11/18 09:47:30;;;;;;;;;;;;;;;12.21;79.92;99592.88;7383949;19;20522;-86
2022/11/18 09:49:59;;;;;;;;;;;;;;;12.19;78.93;99595.69;7384510;19;19937;-87
2022/11/18 09:52:57;;;;;;;;;;;;;;;12.19;78.45;99602.81;7380661;19;20274;-87
2022/11/18 09:55:27;;;;;;;;;;;;;;;12.26;79.02;99614.22;7383363;19;19932;-86
2022/11/18 09:57:55;;;;;;;;;;;;;;;12.30;79.07;99610.97;7380462;19;20776;-85
2022/11/18 10:00:23;;;;;;;;;;;;;;;12.35;79.38;99613.84;7380894;19;19994;-87
2022/11/18 10:02:56;;;;;;;;;;;;;;;12.36;78.37;99619.94;7382622;19;19921;-87
2022/11/18 10:05:25;;;;;;;;;;;;;;;12.33;77.37;99625.63;7382324;19;19940;-88
2022/11/18 10:08:02;;;;;;;;;;;;;;;12.33;77.56;99630.91;7367026;19;20009;-85
2022/11/18 10:10:43;;;;;;;;;;;;;;;12.28;77.18;99633.31;7370905;19;19923;-86
2022/11/18 10:13:27;;;;;;;;;;;;;;;12.29;77.48;99638.38;7381581;19;19922;-85
2022/11/18 10:15:59;;;;;;;;;;;;;;;12.31;77.35;99641.63;7380188;19;20631;-86
2022/11/18 10:18:37;;;;;;;;;;;;;;;12.38;78.28;99649.59;7376829;19;20204;-87
2022/11/18 10:21:39;;;;;;;;;;;;;;;12.46;78.82;99656.53;7374374;19;20041;-85
2022/11/18 10:24:10;;;;;;;;;;;;;;;12.49;77.72;99656.16;7376952;19;19930;-86
2022/11/18 10:26:39;;;;;;;;;;;;;;;12.52;77.97;99661.84;7379534;19;19918;-86
2022/11/18 10:29:08;;;;;;;;;;;;;;;12.59;78.20;99659.25;7381501;19;19922;-85
2022/11/18 10:31:38;;;;;;;;;;;;;;;12.63;77.69;99666.59;7378062;19;19911;-86
2022/11/18 10:34:09;;;;;;;;;;;;;;;12.68;77.57;99668.66;7377137;19;20553;-85
2022/11/18 10:36:37;;;;;;;;;;;;;;;12.68;76.89;99676.56;7376463;19;19948;-85
2022/11/18 10:39:04;;;;;;;;;;;;;;;12.66;76.59;99668.84;7378567;19;19915;-85
2022/11/18 10:41:42;;;;;;;;;;;;;;;12.71;77.66;99676.97;7379329;19;19918;-85
2022/11/18 10:44:26;;;;;;;;;;;;;;;12.66;76.85;99668.84;7380630;19;19922;-85
2022/11/18 10:46:54;;;;;;;;;;;;;;;12.65;77.27;99675.13;7379123;19;20032;-86
2022/11/18 10:49:21;;;;;;;;;;;;;;;12.69;77.89;99675.56;7378435;19;19919;-86
2022/11/18 10:52:10;;;;;;;;;;;;;;;12.67;76.04;99688.13;7378366;19;19938;-87
2022/11/18 10:57:56;;;;;;;;;;;;;;;12.67;76.90;99678.38;7377862;19;19942;-86
2022/11/18 11:00:33;;;;;;;;;;;;;;;12.75;78.62;99682.66;7377356;19;19940;-86
2022/11/18 11:03:12;;;;;;;;;;;;;;;12.77;76.66;99681.47;7374484;19;19936;-86
2022/11/18 11:05:39;;;;;;;;;;;;;;;12.82;76.79;99686.16;7378030;19;19926;-86
2022/11/18 11:08:18;;;;;;;;;;;;;;;12.85;75.78;99685.78;7375917;19;19967;-87
2022/11/18 11:11:18;;;;;;;;;;;;;;;12.88;76.45;99687.22;7373858;19;21734;-86
2022/11/18 11:13:45;;;;;;;;;;;;;;;12.93;77.66;99682.16;7377676;19;19925;-86
2022/11/18 11:16:16;;;;;;;;;;;;;;;12.95;76.99;99690.72;7381164;19;20008;-86
2022/11/18 11:18:53;;;;;;;;;;;;;;;12.98;76.90;99693.78;7378442;19;19967;-87
2022/11/18 11:21:21;;;;;;;;;;;;;;;13.00;74.91;99696.22;7377947;19;19922;-87
2022/11/18 11:23:49;;;;;;;;;;;;;;;13.01;75.33;99689.91;7379450;19;19926;-86
2022/11/18 11:26:26;;;;;;;;;;;;;;;13.05;76.13;99697.25;7380490;19;19930;-87
2022/11/18 11:29:16;;;;;;;;;;;;;;;13.08;75.69;99696.03;7389801;19;19927;-85
2022/11/18 11:31:55;;;;;;;;;;;;;;;13.10;75.18;99704.59;7382279;19;19933;-86
2022/11/18 11:34:32;;;;;;;;;;;;;;;13.15;75.33;99694.28;7377951;19;19923;-87
2022/11/18 11:36:59;;;;;;;;;;;;;;;13.20;75.24;99705.06;7375323;19;19923;-87
2022/11/18 11:39:36;;;;;;;;;;;;;;;13.25;75.34;99700.81;7380763;19;19922;-86
2022/11/18 11:42:05;;;;;;;;;;;;;;;13.30;75.29;99704.69;7381269;19;19915;-87
2022/11/18 11:44:41;;;;;;;;;;;;;;;13.33;75.08;99699.81;7384642;19;19919;-87
2022/11/18 11:50:02;;;;;;;;;;;;;;;13.39;74.72;99716.72;7380154;19;20677;-85
2022/11/18 11:52:34;;;;;;;;;;;;;;;13.38;73.57;99718.53;7378270;19;20243;-86
2022/11/18 11:55:12;;;;;;;;;;;;;;;13.42;73.77;99721.59;7383812;19;20286;-86
2022/11/18 11:57:49;;;;;;;;;;;;;;;13.44;74.92;99715.09;7383798;19;20336;-86
2022/11/18 12:00:18;;;;;;;;;;;;;;;13.46;73.66;99721.00;7381620;19;19919;-87
2022/11/18 12:02:54;;;;;;;;;;;;;;;13.51;74.28;99725.72;7385664;19;19922;-90
2022/11/18 12:05:25;;;;;;;;;;;;;;;13.55;74.39;99725.09;7378345;19;19915;-87
2022/11/18 12:07:58;;;;;;;;;;;;;;;13.59;73.83;99736.09;7377210;19;19982;-87
2022/11/18 12:10:35;;;;;;;;;;;;;;;13.59;74.03;99728.97;7378102;19;19990;-85
2022/11/18 12:13:11;;;;;;;;;;;;;;;13.58;72.63;99732.63;7375118;19;19944;-86
2022/11/18 12:15:39;;;;;;;;;;;;;;;13.66;73.49;99739.56;7375359;19;19922;-86
2022/11/18 12:18:13;;;;;;;;;;;;;;;13.68;73.36;99738.34;7375005;19;20458;-86
2022/11/18 12:20:42;;;;;;;;;;;;;;;13.71;73.29;99743.22;7376310;19;19944;-85
2022/11/18 12:23:10;;;;;;;;;;;;;;;13.70;71.92;99738.97;7375289;19;19918;-85
2022/11/18 12:25:47;;;;;;;;;;;;;;;13.75;72.25;99742.84;7376371;19;19944;-86
2022/11/18 12:28:22;;;;;;;;;;;;;;;13.79;71.87;99741.41;7375335;19;19957;-85
2022/11/18 12:31:01;;;;;;;;;;;;;;;13.85;71.33;99751.19;7377731;19;20020;-87
2022/11/18 12:33:28;;;;;;;;;;;;;;;13.89;72.91;99752.41;7372848;19;19926;-85
2022/11/18 12:35:55;;;;;;;;;;;;;;;13.91;72.62;99751.22;7388749;19;19922;-85
2022/11/18 12:38:27;;;;;;;;;;;;;;;13.93;72.83;99753.63;7375478;19;19922;-85
2022/11/18 12:43:45;;;;;;;;;;;;;;;14.00;72.86;99754.47;7381023;19;20789;-86
2022/11/18 12:43:47;;;;;;;;;;;;;;;14.03;72.05;99762.81;7387283;19;20019;-87
2022/11/18 12:46:23;;;;;;;;;;;;;;;14.04;71.84;99764.44;7388388;19;19918;-85
2022/11/18 12:48:50;;;;;;;;;;;;;;;14.11;71.84;99769.75;7383964;19;19935;-85
2022/11/18 12:51:18;;;;;;;;;;;;;;;14.09;70.86;99769.94;7390548;19;19926;-86
2022/11/18 12:53:46;;;;;;;;;;;;;;;14.13;73.07;99773.00;7387661;19;20409;-86
2022/11/18 12:56:17;;;;;;;;;;;;;;;14.18;72.94;99770.56;7385594;19;20255;-85
2022/11/18 12:58:45;;;;;;;;;;;;;;;14.22;72.59;99784.22;7394965;19;20281;-87
2022/11/18 13:01:13;;;;;;;;;;;;;;;14.23;71.50;99778.72;7381617;19;19913;-87
2022/11/18 13:06:46;;;;;;;;;;;;;;;14.18;68.89;99789.09;7392773;19;20492;-88
2022/11/18 13:09:19;;;;;;;;;;;;;;;14.19;69.42;99789.91;7383212;19;19915;-86
2022/11/18 13:11:51;;;;;;;;;;;;;;;14.16;68.72;99793.78;7388229;19;19926;-85
2022/11/18 13:20:23;;;;;;;;;;;;;;;14.16;69.75;99801.72;7395082;19;19914;-87
2022/11/18 13:23:52;;;;;;;;;;;;;;;14.17;69.46;99802.53;7388631;19;19915;-87
2022/11/18 13:25:41;;;;;;;;;;;;;;;14.20;69.02;99802.13;7388527;19;20432;-87
2022/11/18 13:28:17;;;;;;;;;;;;;;;14.19;69.30;99808.41;7389955;19;19920;-86
2022/11/18 13:30:50;;;;;;;;;;;;;;;14.16;68.65;99814.94;7387779;19;19933;-87
2022/11/18 13:33:17;;;;;;;;;;;;;;;14.10;69.44;99813.91;7389065;19;19927;-86
2022/11/18 13:35:44;;;;;;;;;;;;;;;14.10;69.60;99810.44;7384362;19;19918;-86
2022/11/18 13:38:18;;;;;;;;;;;;;;;14.09;69.71;99812.28;7380757;19;19919;-86
2022/11/18 13:43:31;;;;;;;;;;;;;;;14.04;68.03;99825.28;7407845;19;19915;-87
2022/11/18 13:46:00;;;;;;;;;;;;;;;14.05;68.10;99826.09;7388467;19;19948;-87
2022/11/18 13:48:27;;;;;;;;;;;;;;;14.01;67.81;99833.63;7386857;19;19949;-85
2022/11/18 13:50:57;;;;;;;;;;;;;;;14.03;69.25;99836.88;7377668;19;19956;-85
2022/11/18 13:53:29;;;;;;;;;;;;;;;14.04;69.20;99846.44;7378681;19;19922;-87